Time;durP1;ratioP1;P1;durP2;ratioP2;P2;SDS_P1;SDS_P2;PMS_P1;PMS_P2;Temp;Humidity;BMP_temperature;BMP_pressure;BME280_temperature;BME280_humidity;BME280_pressure;Samples;Min_cycle;Max_cycle;Signal;HPM_P1;HPM_P2
2022/04/17 00:00:31;;;;;;;;;;;;;;;11.88;32.05;101920.53;4959503;28;7254;-75
2022/04/17 00:02:57;;;;;;;;;;;;;;;11.85;32.00;101914.28;4975999;28;7062;-75
2022/04/17 00:05:23;;;;;;;;;;;;;;;11.80;31.79;101917.47;4978074;28;6874;-75
2022/04/17 00:07:49;;;;;;;;;;;;;;;11.75;31.78;101921.38;4980019;28;7226;-75
2022/04/17 00:10:14;;;;;;;;;;;;;;;11.69;31.90;101910.72;4978584;28;6871;-75
2022/04/17 00:12:41;;;;;;;;;;;;;;;11.65;31.79;101908.72;4980389;28;7074;-75
2022/04/17 00:15:11;;;;;;;;;;;;;;;11.61;31.84;101902.47;4977523;28;7187;-75
2022/04/17 00:17:42;;;;;;;;;;;;;;;11.55;32.14;101902.06;4978498;28;7023;-75
2022/04/17 00:20:18;;;;;;;;;;;;;;;11.51;32.13;101907.78;4980400;28;7175;-75
2022/04/17 00:22:44;;;;;;;;;;;;;;;11.48;32.26;101916.13;4982859;28;7043;-75
2022/04/17 00:25:12;;;;;;;;;;;;;;;11.44;32.30;101909.03;4964671;28;6985;-75
2022/04/17 00:27:40;;;;;;;;;;;;;;;11.43;32.26;101907.25;4979952;28;6816;-75
2022/04/17 00:30:08;;;;;;;;;;;;;;;11.42;32.32;101910.59;4982561;28;9727;-75
2022/04/17 00:32:36;;;;;;;;;;;;;;;11.41;32.89;101902.78;4980261;28;6811;-75
2022/04/17 00:35:03;;;;;;;;;;;;;;;11.38;32.49;101898.34;4981711;28;6812;-75
2022/04/17 00:37:29;;;;;;;;;;;;;;;11.35;32.69;101903.25;4978579;28;6967;-75
2022/04/17 00:39:55;;;;;;;;;;;;;;;11.32;32.70;101903.06;4982101;28;6779;-75
2022/04/17 00:42:21;;;;;;;;;;;;;;;11.27;32.22;101889.00;4966525;28;6804;-75
2022/04/17 00:44:47;;;;;;;;;;;;;;;11.22;32.26;101881.91;4981358;28;6829;-75
2022/04/17 00:47:15;;;;;;;;;;;;;;;11.21;32.98;101880.13;4982998;28;7015;-75
2022/04/17 00:49:46;;;;;;;;;;;;;;;11.17;32.75;101888.38;4982358;28;8112;-75
2022/04/17 00:52:14;;;;;;;;;;;;;;;11.15;33.13;101886.47;4981142;28;7067;-75
2022/04/17 00:54:46;;;;;;;;;;;;;;;11.11;32.72;101887.97;4967538;28;7027;-75
2022/04/17 00:57:16;;;;;;;;;;;;;;;11.06;33.24;101887.66;4994983;28;6900;-75
2022/04/17 00:59:43;;;;;;;;;;;;;;;11.02;32.91;101887.31;4981442;28;6835;-75
2022/04/17 01:02:10;;;;;;;;;;;;;;;10.98;32.82;101886.22;4995700;28;6792;-75
2022/04/17 01:04:36;;;;;;;;;;;;;;;10.94;33.56;101881.63;4982350;28;6993;-75
2022/04/17 01:07:04;;;;;;;;;;;;;;;10.90;33.33;101877.94;4999373;28;7027;-75
2022/04/17 01:09:31;;;;;;;;;;;;;;;10.86;33.41;101875.97;4980728;28;6796;-76
2022/04/17 01:11:58;;;;;;;;;;;;;;;10.81;33.28;101875.66;4997726;28;6796;-76
2022/04/17 01:14:26;;;;;;;;;;;;;;;10.79;34.01;101878.88;4964398;28;6871;-76
2022/04/17 01:16:52;;;;;;;;;;;;;;;10.76;33.72;101874.41;4978582;28;6823;-76
2022/04/17 01:19:18;;;;;;;;;;;;;;;10.75;33.73;101874.31;4981651;28;6772;-76
2022/04/17 01:21:46;;;;;;;;;;;;;;;10.72;34.04;101869.84;4982664;28;6795;-76
2022/04/17 01:27:02;;;;;;;;;;;;;;;10.69;33.99;101873.09;4980212;28;6905;-76
2022/04/17 01:29:38;;;;;;;;;;;;;;;10.67;34.15;101861.84;4980945;28;6899;-76
2022/04/17 01:32:09;;;;;;;;;;;;;;;10.66;34.88;101859.16;4978726;28;7887;-76
2022/04/17 01:34:36;;;;;;;;;;;;;;;10.65;34.25;101865.97;4972522;28;6812;-76
2022/04/17 01:37:04;;;;;;;;;;;;;;;10.63;34.82;101854.72;4998527;28;7144;-76
2022/04/17 01:39:30;;;;;;;;;;;;;;;10.62;34.84;101855.50;4977635;28;6828;-76
2022/04/17 01:41:58;;;;;;;;;;;;;;;10.60;34.68;101854.50;4980539;28;8073;-76
2022/04/17 01:44:25;;;;;;;;;;;;;;;10.57;34.79;101851.72;4996528;28;6808;-76
2022/04/17 01:46:52;;;;;;;;;;;;;;;10.56;35.40;101843.13;4978367;28;6976;-76
2022/04/17 01:49:18;;;;;;;;;;;;;;;10.53;35.05;101837.78;4980794;28;6877;-76
2022/04/17 01:51:47;;;;;;;;;;;;;;;10.53;34.67;101842.03;4971528;28;7527;-76
2022/04/17 01:54:21;;;;;;;;;;;;;;;10.51;35.25;101851.25;4980388;28;7018;-76
2022/04/17 01:56:48;;;;;;;;;;;;;;;10.47;35.10;101854.41;4980523;28;6815;-77
2022/04/17 01:59:16;;;;;;;;;;;;;;;10.45;35.45;101859.41;4979465;28;6800;-77
2022/04/17 02:01:42;;;;;;;;;;;;;;;10.41;35.41;101855.72;4976498;28;6855;-77
2022/04/17 02:04:09;;;;;;;;;;;;;;;10.38;36.10;101857.16;4941270;28;7417;-77
2022/04/17 02:06:39;;;;;;;;;;;;;;;10.35;35.34;101860.41;4994198;28;6804;-77
2022/04/17 02:09:08;;;;;;;;;;;;;;;10.30;36.21;101850.59;4980039;28;6808;-77
2022/04/17 02:11:34;;;;;;;;;;;;;;;10.26;35.59;101849.47;4965828;28;7142;-77
2022/04/17 02:14:00;;;;;;;;;;;;;;;10.22;35.79;101845.81;4978711;28;6886;-77
2022/04/17 02:16:26;;;;;;;;;;;;;;;10.18;35.61;101846.34;4980927;28;7132;-77
2022/04/17 02:18:52;;;;;;;;;;;;;;;10.14;36.55;101845.25;4979147;28;6950;-77
2022/04/17 02:21:19;;;;;;;;;;;;;;;10.11;35.79;101845.00;4980553;28;7090;-77
2022/04/17 02:23:45;;;;;;;;;;;;;;;10.07;36.89;101849.81;4995487;28;6796;-77
2022/04/17 02:26:13;;;;;;;;;;;;;;;10.03;37.22;101845.25;4962228;28;6965;-77
2022/04/17 02:28:40;;;;;;;;;;;;;;;9.97;36.96;101849.13;4979264;28;7265;-77
2022/04/17 02:31:08;;;;;;;;;;;;;;;9.93;36.76;101848.78;4962510;28;8124;-77
2022/04/17 02:33:36;;;;;;;;;;;;;;;9.87;36.95;101846.66;4978271;28;7118;-77
2022/04/17 02:36:04;;;;;;;;;;;;;;;9.80;37.07;101850.44;4981347;28;7105;-77
2022/04/17 02:38:30;;;;;;;;;;;;;;;9.77;37.42;101849.31;4975381;28;7042;-77
2022/04/17 02:40:56;;;;;;;;;;;;;;;9.71;36.86;101848.09;4996063;28;6891;-77
2022/04/17 02:43:22;;;;;;;;;;;;;;;9.66;37.23;101839.16;4980236;28;6844;-77
2022/04/17 02:45:52;;;;;;;;;;;;;;;9.63;36.96;101844.06;4978864;28;6796;-76
2022/04/17 02:48:19;;;;;;;;;;;;;;;9.60;37.13;101836.13;4981333;28;7365;-76
2022/04/17 02:50:47;;;;;;;;;;;;;;;9.58;37.34;101836.03;4979780;28;6808;-76
2022/04/17 02:53:16;;;;;;;;;;;;;;;9.57;38.50;101830.81;4979941;28;6985;-76
2022/04/17 02:55:43;;;;;;;;;;;;;;;9.56;38.12;101836.69;4965716;28;7248;-76
2022/04/17 02:58:10;;;;;;;;;;;;;;;9.54;38.45;101833.16;4977483;28;6808;-77
2022/04/17 03:06:11;;;;;;;;;;;;;;;9.47;38.06;101828.34;4978755;28;6872;-76
2022/04/17 03:08:41;;;;;;;;;;;;;;;9.44;38.18;101836.66;4956791;28;6987;-76
2022/04/17 03:11:08;;;;;;;;;;;;;;;9.40;37.96;101835.53;4980636;28;6804;-76
2022/04/17 03:13:34;;;;;;;;;;;;;;;9.37;38.42;101837.00;4978123;28;6800;-76
2022/04/17 03:16:00;;;;;;;;;;;;;;;9.31;38.48;101832.28;4962951;28;6772;-76
2022/04/17 03:18:26;;;;;;;;;;;;;;;9.26;38.52;101833.59;4980666;28;6784;-76
2022/04/17 03:20:51;;;;;;;;;;;;;;;9.19;39.51;101824.59;4992925;28;6799;-74
2022/04/17 03:23:17;;;;;;;;;;;;;;;9.13;39.05;101824.09;4979292;28;6901;-74
2022/04/17 03:25:44;;;;;;;;;;;;;;;9.08;38.34;101820.28;4981276;28;6800;-74
2022/04/17 03:28:10;;;;;;;;;;;;;;;9.03;38.82;101823.38;4959757;28;7163;-74
2022/04/17 03:30:36;;;;;;;;;;;;;;;9.00;39.69;101817.16;4977366;28;8606;-74
2022/04/17 03:33:02;;;;;;;;;;;;;;;8.97;39.36;101816.91;4979298;28;6957;-74
2022/04/17 03:35:29;;;;;;;;;;;;;;;8.94;39.80;101815.00;4977799;28;6828;-74
2022/04/17 03:37:55;;;;;;;;;;;;;;;8.92;39.22;101816.56;4977917;28;6804;-74
2022/04/17 03:40:21;;;;;;;;;;;;;;;8.91;39.41;101812.22;4978965;28;7152;-74
2022/04/17 03:42:47;;;;;;;;;;;;;;;8.89;38.97;101814.66;4994380;28;6858;-74
2022/04/17 03:45:17;;;;;;;;;;;;;;;8.91;39.94;101813.88;4979567;28;6808;-74
2022/04/17 03:47:43;;;;;;;;;;;;;;;8.91;39.05;101803.66;4977074;28;6895;-75
2022/04/17 03:50:10;;;;;;;;;;;;;;;8.93;40.43;101799.53;4978711;28;7019;-75
2022/04/17 03:52:46;;;;;;;;;;;;;;;8.94;39.17;101804.78;4994148;28;8060;-75
2022/04/17 03:55:13;;;;;;;;;;;;;;;8.93;39.79;101800.44;4976848;28;6828;-75
2022/04/17 03:57:40;;;;;;;;;;;;;;;8.95;40.37;101800.56;4998171;28;7023;-75
2022/04/17 04:00:11;;;;;;;;;;;;;;;8.96;40.50;101795.56;4980885;28;6800;-75
2022/04/17 04:02:37;;;;;;;;;;;;;;;8.97;40.24;101794.78;4982720;28;6855;-75
2022/04/17 04:05:05;;;;;;;;;;;;;;;8.99;39.87;101797.47;4963730;28;6973;-75
2022/04/17 04:07:30;;;;;;;;;;;;;;;8.98;40.53;101799.16;4980085;28;6824;-75
2022/04/17 04:09:56;;;;;;;;;;;;;;;8.98;40.49;101794.03;4986019;28;6812;-75
2022/04/17 04:12:22;;;;;;;;;;;;;;;8.96;39.63;101792.13;4980319;28;7145;-75
2022/04/17 04:14:47;;;;;;;;;;;;;;;8.95;39.55;101793.78;4959364;28;7852;-75
2022/04/17 04:17:13;;;;;;;;;;;;;;;8.93;39.62;101797.88;4982984;28;6811;-75
2022/04/17 04:19:39;;;;;;;;;;;;;;;8.91;39.54;101791.75;4980828;28;6795;-75
2022/04/17 04:22:04;;;;;;;;;;;;;;;8.89;40.52;101798.44;4980259;28;6973;-75
2022/04/17 04:24:31;;;;;;;;;;;;;;;8.85;39.76;101787.06;4981837;28;8032;-75
2022/04/17 04:29:41;;;;;;;;;;;;;;;8.75;39.94;101787.13;4983056;28;6943;-75
2022/04/17 04:32:07;;;;;;;;;;;;;;;8.71;40.52;101790.22;4981049;28;7955;-75
2022/04/17 04:34:33;;;;;;;;;;;;;;;8.66;39.95;101792.41;4982776;28;7066;-75
2022/04/17 04:37:00;;;;;;;;;;;;;;;8.60;40.71;101792.81;4985921;28;6887;-75
2022/04/17 04:39:27;;;;;;;;;;;;;;;8.54;40.25;101794.88;4980426;28;7852;-75
2022/04/17 04:41:53;;;;;;;;;;;;;;;8.47;41.54;101793.47;4983628;28;7014;-75
2022/04/17 04:44:19;;;;;;;;;;;;;;;8.43;40.43;101799.13;4979989;28;6796;-75
2022/04/17 04:46:44;;;;;;;;;;;;;;;8.36;40.79;101793.44;4979710;28;8097;-74
2022/04/17 04:49:29;;;;;;;;;;;;;;;8.31;41.46;101796.50;4981701;28;6875;-74
2022/04/17 04:52:00;;;;;;;;;;;;;;;8.24;40.96;101793.34;4981593;28;6827;-74
2022/04/17 04:54:27;;;;;;;;;;;;;;;8.19;41.42;101788.72;4981238;28;6839;-74
2022/04/17 04:56:53;;;;;;;;;;;;;;;8.15;41.96;101796.03;4961232;28;7045;-74
2022/04/17 04:59:20;;;;;;;;;;;;;;;8.11;41.08;101799.13;4963653;28;7876;-74
2022/04/17 05:01:48;;;;;;;;;;;;;;;8.07;42.30;101800.53;4981646;28;7181;-74
2022/04/17 05:04:16;;;;;;;;;;;;;;;8.04;41.65;101806.28;4980383;28;6827;-74
2022/04/17 05:06:42;;;;;;;;;;;;;;;8.02;42.07;101812.06;4977801;28;6823;-74
2022/04/17 05:09:08;;;;;;;;;;;;;;;7.99;42.53;101805.03;4979560;28;6852;-74
2022/04/17 05:11:33;;;;;;;;;;;;;;;7.98;42.63;101802.34;4979581;28;6796;-74
2022/04/17 05:13:59;;;;;;;;;;;;;;;7.96;42.28;101807.31;4995531;28;6909;-74
2022/04/17 05:16:25;;;;;;;;;;;;;;;7.97;42.33;101803.09;4981492;28;6850;-74
2022/04/17 05:19:17;;;;;;;;;;;;;;;7.97;43.18;101798.00;4979500;28;6874;-74
2022/04/17 05:21:36;;;;;;;;;;;;;;;7.97;42.84;101798.91;4977858;28;6820;-74
2022/04/17 05:24:02;;;;;;;;;;;;;;;7.99;42.76;101801.56;4981991;28;7279;-74
2022/04/17 05:26:27;;;;;;;;;;;;;;;8.04;43.12;101805.41;4981105;28;6788;-74
2022/04/17 05:28:56;;;;;;;;;;;;;;;8.09;43.90;101804.09;4980069;28;8525;-74
2022/04/17 05:31:22;;;;;;;;;;;;;;;8.16;43.56;101800.38;4982583;28;7221;-74
2022/04/17 05:33:47;;;;;;;;;;;;;;;8.24;42.90;101791.66;4981643;28;6895;-74
2022/04/17 05:36:13;;;;;;;;;;;;;;;8.32;43.55;101789.75;4967359;28;6870;-74
2022/04/17 05:38:39;;;;;;;;;;;;;;;8.42;43.59;101794.81;4982155;28;6795;-74
2022/04/17 05:41:08;;;;;;;;;;;;;;;8.52;43.31;101793.00;4978369;28;7519;-74
2022/04/17 05:43:38;;;;;;;;;;;;;;;8.62;42.60;101787.84;4980699;28;6827;-74
2022/04/17 05:46:04;;;;;;;;;;;;;;;8.72;42.54;101785.22;4979692;28;6804;-74
2022/04/17 05:48:29;;;;;;;;;;;;;;;8.81;42.58;101789.28;4963598;28;7223;-74
2022/04/17 05:50:56;;;;;;;;;;;;;;;8.91;42.31;101789.22;4979971;28;6812;-74
2022/04/17 05:53:21;;;;;;;;;;;;;;;9.02;42.58;101784.91;4979660;28;8075;-74
2022/04/17 05:55:48;;;;;;;;;;;;;;;9.11;42.93;101789.84;4979863;28;7077;-74
2022/04/17 05:58:13;;;;;;;;;;;;;;;9.22;43.37;101782.97;4995328;28;7244;-74
2022/04/17 06:00:42;;;;;;;;;;;;;;;9.31;42.90;101784.56;4979419;28;6823;-74
2022/04/17 06:03:08;;;;;;;;;;;;;;;9.42;42.23;101780.25;4978409;28;6966;-74
2022/04/17 06:05:33;;;;;;;;;;;;;;;9.52;42.29;101770.72;4980472;28;6902;-74
2022/04/17 06:07:59;;;;;;;;;;;;;;;9.63;42.66;101761.25;4997838;28;6815;-74
2022/04/17 06:10:24;;;;;;;;;;;;;;;9.75;43.08;101772.38;4982161;28;6819;-74
2022/04/17 06:12:50;;;;;;;;;;;;;;;9.87;42.24;101764.72;4961719;28;6863;-75
2022/04/17 06:15:16;;;;;;;;;;;;;;;9.99;42.46;101759.59;4977351;28;6946;-75
2022/04/17 06:17:43;;;;;;;;;;;;;;;10.08;42.68;101761.91;4976163;28;7248;-75
2022/04/17 06:20:11;;;;;;;;;;;;;;;10.18;42.36;101769.47;4962949;28;6988;-74
2022/04/17 06:22:38;;;;;;;;;;;;;;;10.30;42.21;101766.91;4977928;28;6824;-74
2022/04/17 06:25:10;;;;;;;;;;;;;;;10.42;42.10;101769.50;4977741;28;6903;-74
2022/04/17 06:27:42;;;;;;;;;;;;;;;10.56;41.65;101765.34;4978213;28;7605;-75
2022/04/17 06:30:19;;;;;;;;;;;;;;;10.69;41.27;101757.69;4977407;28;6820;-75
2022/04/17 06:32:45;;;;;;;;;;;;;;;10.79;41.67;101755.78;4980032;28;6816;-75
2022/04/17 06:35:13;;;;;;;;;;;;;;;10.89;41.55;101763.31;4976972;28;6792;-74
2022/04/17 06:37:56;;;;;;;;;;;;;;;10.99;41.34;101764.84;4962365;28;6804;-74
2022/04/17 06:40:25;;;;;;;;;;;;;;;11.08;41.31;101762.00;4989650;28;6895;-74
2022/04/17 06:42:54;;;;;;;;;;;;;;;11.18;40.83;101763.53;4959151;28;7272;-74
2022/04/17 06:45:21;;;;;;;;;;;;;;;11.28;40.81;101768.50;4992023;28;7267;-74
2022/04/17 06:47:48;;;;;;;;;;;;;;;11.37;40.98;101766.53;4979925;28;6835;-74
2022/04/17 06:50:19;;;;;;;;;;;;;;;11.45;40.77;101772.16;4949688;28;8067;-74
2022/04/17 06:52:44;;;;;;;;;;;;;;;11.57;40.93;101766.97;4976127;28;9741;-74
2022/04/17 06:55:12;;;;;;;;;;;;;;;11.66;40.65;101761.53;4976179;28;8283;-74
2022/04/17 06:57:47;;;;;;;;;;;;;;;11.76;40.46;101757.91;4981017;28;6803;-74
2022/04/17 07:00:14;;;;;;;;;;;;;;;11.86;40.20;101756.78;4976983;28;7684;-74
2022/04/17 07:02:42;;;;;;;;;;;;;;;11.94;39.73;101750.47;4978024;28;7160;-74
2022/04/17 07:05:09;;;;;;;;;;;;;;;12.03;39.63;101745.97;4973890;28;6808;-74
2022/04/17 07:07:34;;;;;;;;;;;;;;;12.13;39.81;101741.41;4957638;28;6880;-74
2022/04/17 07:10:01;;;;;;;;;;;;;;;12.22;39.46;101734.28;4961768;28;6871;-74
2022/04/17 07:12:29;;;;;;;;;;;;;;;12.30;39.71;101735.66;4959005;28;6828;-74
2022/04/17 07:14:55;;;;;;;;;;;;;;;12.40;39.45;101734.50;4978568;28;6903;-75
2022/04/17 07:17:20;;;;;;;;;;;;;;;12.50;38.82;101733.41;4977488;28;7297;-74
2022/04/17 07:19:46;;;;;;;;;;;;;;;12.61;39.39;101728.94;4980028;28;7078;-74
2022/04/17 07:22:13;;;;;;;;;;;;;;;12.70;39.22;101723.44;4977835;28;6799;-74
2022/04/17 07:24:43;;;;;;;;;;;;;;;12.80;39.02;101730.06;4978093;28;7235;-74
2022/04/17 07:27:11;;;;;;;;;;;;;;;12.90;38.91;101733.25;4977174;28;6816;-74
2022/04/17 07:29:38;;;;;;;;;;;;;;;13.03;38.43;101718.53;4976769;28;7267;-74
2022/04/17 07:32:04;;;;;;;;;;;;;;;13.13;38.07;101713.13;4978594;28;7198;-74
2022/04/17 07:34:30;;;;;;;;;;;;;;;13.26;38.79;101713.88;4983777;28;7204;-74
2022/04/17 07:36:56;;;;;;;;;;;;;;;13.38;37.92;101721.41;4995382;28;6792;-74
2022/04/17 07:39:22;;;;;;;;;;;;;;;13.50;38.54;101714.41;4980748;28;7154;-74
2022/04/17 07:41:48;;;;;;;;;;;;;;;13.60;37.90;101719.28;4996271;28;8330;-74
2022/04/17 07:44:14;;;;;;;;;;;;;;;13.72;38.37;101729.41;4978885;28;6764;-74
2022/04/17 07:46:42;;;;;;;;;;;;;;;13.83;38.44;101723.97;4980897;28;6911;-74
2022/04/17 07:49:09;;;;;;;;;;;;;;;13.94;37.75;101720.28;4960351;28;8116;-74
2022/04/17 07:51:35;;;;;;;;;;;;;;;14.05;37.01;101718.31;4973414;28;7148;-74
2022/04/17 07:54:02;;;;;;;;;;;;;;;14.15;37.89;101720.59;4999926;28;6891;-74
2022/04/17 07:56:28;;;;;;;;;;;;;;;14.24;36.80;101709.88;4977139;28;7090;-74
2022/04/17 07:58:54;;;;;;;;;;;;;;;14.34;37.59;101706.13;4979650;28;8167;-74
2022/04/17 08:01:21;;;;;;;;;;;;;;;14.44;36.93;101707.47;4981719;28;10228;-75
2022/04/17 08:03:47;;;;;;;;;;;;;;;14.50;36.25;101700.06;4979233;28;7023;-75
2022/04/17 08:06:17;;;;;;;;;;;;;;;14.59;36.15;101707.38;4984018;28;6824;-75
2022/04/17 08:08:44;;;;;;;;;;;;;;;14.69;37.05;101703.63;4961820;28;6827;-75
2022/04/17 08:11:11;;;;;;;;;;;;;;;14.80;36.62;101707.66;4978011;28;7286;-75
2022/04/17 08:13:38;;;;;;;;;;;;;;;14.91;36.56;101704.75;4981357;28;6804;-75
2022/04/17 08:16:05;;;;;;;;;;;;;;;15.02;36.07;101702.69;4980897;28;8054;-75
2022/04/17 08:18:33;;;;;;;;;;;;;;;15.12;36.29;101704.94;4964115;28;6848;-75
2022/04/17 08:21:00;;;;;;;;;;;;;;;15.24;35.86;101704.66;4979088;28;6812;-75
2022/04/17 08:23:26;;;;;;;;;;;;;;;15.36;36.20;101694.06;4993984;28;7193;-75
2022/04/17 08:25:52;;;;;;;;;;;;;;;15.44;35.48;101690.16;4981415;28;7217;-75
2022/04/17 08:28:17;;;;;;;;;;;;;;;15.57;35.84;101688.16;4984490;28;6959;-75
2022/04/17 08:30:43;;;;;;;;;;;;;;;15.67;35.63;101680.03;4993663;28;6898;-75
2022/04/17 08:33:09;;;;;;;;;;;;;;;15.77;35.78;101678.78;4979400;28;6867;-75
2022/04/17 08:35:36;;;;;;;;;;;;;;;15.89;35.43;101686.22;4979571;28;6975;-75
2022/04/17 08:38:03;;;;;;;;;;;;;;;16.00;35.11;101678.97;4979123;28;6813;-75
2022/04/17 08:40:30;;;;;;;;;;;;;;;16.12;35.57;101673.50;4976665;28;6799;-75
2022/04/17 08:42:57;;;;;;;;;;;;;;;16.24;34.97;101674.94;4975684;28;6975;-75
2022/04/17 08:45:24;;;;;;;;;;;;;;;16.36;34.59;101673.72;4978123;28;7003;-75
2022/04/17 08:47:51;;;;;;;;;;;;;;;16.47;34.47;101676.78;4980480;28;6792;-75
2022/04/17 08:50:20;;;;;;;;;;;;;;;16.59;34.24;101671.25;4963901;28;7385;-75
2022/04/17 08:52:50;;;;;;;;;;;;;;;16.70;34.17;101670.00;4963400;28;6963;-75
2022/04/17 08:55:16;;;;;;;;;;;;;;;16.80;33.92;101669.59;4974846;28;8212;-75
2022/04/17 08:57:43;;;;;;;;;;;;;;;16.90;34.05;101676.03;4985343;28;6831;-75
2022/04/17 09:00:16;;;;;;;;;;;;;;;17.01;34.15;101676.53;4988463;28;7710;-75
2022/04/17 09:02:43;;;;;;;;;;;;;;;17.13;33.43;101664.91;4989129;28;6808;-75
2022/04/17 09:05:12;;;;;;;;;;;;;;;17.21;33.64;101669.56;4957456;28;7003;-75
2022/04/17 09:07:47;;;;;;;;;;;;;;;17.29;33.52;101666.41;4948117;28;7210;-75
2022/04/17 09:10:26;;;;;;;;;;;;;;;17.37;33.51;101669.31;4977365;28;6808;-75
2022/04/17 09:13:01;;;;;;;;;;;;;;;17.45;33.05;101668.81;4980724;28;6812;-75
2022/04/17 09:15:31;;;;;;;;;;;;;;;17.54;32.82;101667.41;4995549;28;7189;-75
2022/04/17 09:17:58;;;;;;;;;;;;;;;17.63;33.02;101663.47;4983415;28;6816;-75
2022/04/17 09:20:26;;;;;;;;;;;;;;;17.77;33.16;101655.34;4976534;28;7082;-75
2022/04/17 09:22:56;;;;;;;;;;;;;;;17.96;33.09;101651.72;4995882;28;6831;-73
2022/04/17 09:25:23;;;;;;;;;;;;;;;18.20;32.68;101650.03;4978189;28;7210;-73
2022/04/17 09:28:07;;;;;;;;;;;;;;;18.48;33.02;101653.59;4979507;28;6907;-74
2022/04/17 09:30:45;;;;;;;;;;;;;;;18.92;32.88;101638.66;4991700;28;6915;-74
2022/04/17 09:33:13;;;;;;;;;;;;;;;19.54;32.32;101631.97;4978370;28;7133;-74
2022/04/17 09:35:40;;;;;;;;;;;;;;;20.38;31.02;101637.91;4977728;28;6900;-74
2022/04/17 09:38:08;;;;;;;;;;;;;;;21.34;30.51;101622.88;4976888;28;7259;-74
2022/04/17 09:40:37;;;;;;;;;;;;;;;22.28;29.98;101615.31;4993430;28;6976;-74
2022/04/17 09:43:15;;;;;;;;;;;;;;;23.25;28.68;101615.16;4977616;28;7414;-74
2022/04/17 09:46:16;;;;;;;;;;;;;;;24.25;28.16;101610.38;4982991;28;6796;-74
2022/04/17 09:48:46;;;;;;;;;;;;;;;24.97;26.74;101603.16;4943910;28;6804;-74
2022/04/17 09:51:23;;;;;;;;;;;;;;;25.63;26.53;101601.81;4969671;28;7067;-74
2022/04/17 09:54:05;;;;;;;;;;;;;;;26.27;25.39;101602.00;4978144;28;6812;-74
2022/04/17 09:56:40;;;;;;;;;;;;;;;26.81;25.12;101591.53;4974191;28;6964;-74
2022/04/17 09:59:23;;;;;;;;;;;;;;;27.36;24.74;101583.56;4981100;28;6812;-74
2022/04/17 10:01:52;;;;;;;;;;;;;;;27.77;24.42;101579.03;4964871;28;6819;-74
2022/04/17 10:04:20;;;;;;;;;;;;;;;28.09;23.34;101573.56;4978805;28;7226;-74
2022/04/17 10:06:51;;;;;;;;;;;;;;;28.30;22.82;101579.63;4975791;28;8600;-74
2022/04/17 10:09:18;;;;;;;;;;;;;;;28.45;22.90;101573.34;4977983;28;7026;-74
2022/04/17 10:11:44;;;;;;;;;;;;;;;28.62;22.20;101570.56;4959272;28;7587;-74
2022/04/17 10:14:10;;;;;;;;;;;;;;;28.85;22.57;101576.53;4977608;28;6811;-74
2022/04/17 10:16:41;;;;;;;;;;;;;;;29.12;22.21;101562.16;4976621;28;7714;-74
2022/04/17 10:19:13;;;;;;;;;;;;;;;29.34;21.79;101551.34;4960168;28;6827;-74
2022/04/17 10:21:40;;;;;;;;;;;;;;;29.35;21.45;101555.72;4979281;28;7197;-74
2022/04/17 10:24:12;;;;;;;;;;;;;;;29.31;21.21;101556.66;4978256;28;7129;-74
2022/04/17 10:26:48;;;;;;;;;;;;;;;29.24;20.96;101550.59;4977903;28;6816;-74
2022/04/17 10:29:45;;;;;;;;;;;;;;;29.29;21.49;101545.25;4979129;28;7050;-74
2022/04/17 10:32:33;;;;;;;;;;;;;;;29.45;21.38;101536.25;4971579;28;6977;-74
2022/04/17 10:35:58;;;;;;;;;;;;;;;29.71;20.44;101535.03;4977974;28;6981;-74
2022/04/17 10:38:48;;;;;;;;;;;;;;;30.01;20.46;101524.91;4962861;28;7936;-74
2022/04/17 10:41:15;;;;;;;;;;;;;;;30.26;20.40;101519.25;4972501;28;6812;-74
2022/04/17 10:43:47;;;;;;;;;;;;;;;30.52;20.21;101514.41;4978707;28;7621;-75
2022/04/17 10:46:14;;;;;;;;;;;;;;;30.80;19.79;101506.84;4992779;28;6898;-74
2022/04/17 10:48:57;;;;;;;;;;;;;;;31.09;19.61;101504.53;4977485;28;6823;-74
2022/04/17 10:51:30;;;;;;;;;;;;;;;31.24;19.30;101504.25;4957473;28;7091;-75
2022/04/17 10:54:10;;;;;;;;;;;;;;;31.35;18.92;101514.59;4977162;28;6804;-75
2022/04/17 10:56:38;;;;;;;;;;;;;;;31.37;17.96;101509.28;4975553;28;7288;-74
2022/04/17 10:59:19;;;;;;;;;;;;;;;31.17;17.75;101506.09;4979552;28;6808;-74
2022/04/17 11:01:44;;;;;;;;;;;;;;;31.09;18.17;101502.75;4990161;28;6803;-74
2022/04/17 11:04:50;;;;;;;;;;;;;;;31.13;18.00;101501.78;4978535;28;6807;-74
2022/04/17 11:07:16;;;;;;;;;;;;;;;31.03;17.69;101495.81;4977051;28;7027;-74
2022/04/17 11:09:45;;;;;;;;;;;;;;;31.04;17.57;101488.75;4977838;28;7298;-74
2022/04/17 11:12:17;;;;;;;;;;;;;;;31.11;17.86;101490.38;4959744;28;6907;-75
2022/04/17 11:15:01;;;;;;;;;;;;;;;31.18;17.74;101477.88;4975323;28;6792;-75
2022/04/17 11:17:32;;;;;;;;;;;;;;;31.28;17.36;101483.84;4977913;28;7218;-74
2022/04/17 11:20:00;;;;;;;;;;;;;;;31.34;16.96;101478.44;4971854;28;6993;-74
2022/04/17 11:22:34;;;;;;;;;;;;;;;31.42;17.27;101475.59;4976154;28;6812;-74
2022/04/17 11:25:02;;;;;;;;;;;;;;;31.42;16.59;101473.84;4977453;28;6880;-74
2022/04/17 11:27:50;;;;;;;;;;;;;;;31.14;16.37;101466.47;4978398;28;6827;-74
2022/04/17 11:30:15;;;;;;;;;;;;;;;30.97;17.04;101458.91;4957490;28;6839;-75
2022/04/17 11:32:41;;;;;;;;;;;;;;;31.02;16.65;101464.09;4977332;28;6999;-74
2022/04/17 11:35:12;;;;;;;;;;;;;;;31.04;17.08;101455.19;4976443;28;6812;-74
2022/04/17 11:37:38;;;;;;;;;;;;;;;31.07;17.21;101451.63;4939869;28;7479;-74
2022/04/17 11:40:16;;;;;;;;;;;;;;;31.18;16.89;101451.41;4994825;28;6983;-74
2022/04/17 11:42:49;;;;;;;;;;;;;;;31.24;16.38;101446.00;4976135;28;6822;-74
2022/04/17 11:45:26;;;;;;;;;;;;;;;31.27;16.63;101452.97;4990568;28;7001;-74
2022/04/17 11:47:54;;;;;;;;;;;;;;;31.37;16.56;101446.56;4992340;28;6812;-74
2022/04/17 11:50:29;;;;;;;;;;;;;;;31.53;15.93;101440.94;4954966;28;6808;-74
2022/04/17 11:53:02;;;;;;;;;;;;;;;31.63;16.18;101430.97;4980323;28;7165;-74
2022/04/17 11:55:35;;;;;;;;;;;;;;;31.79;16.06;101432.34;4960615;28;7262;-74
2022/04/17 11:58:03;;;;;;;;;;;;;;;31.96;16.04;101431.09;4976930;28;6823;-74
2022/04/17 12:00:31;;;;;;;;;;;;;;;32.09;16.00;101419.22;4974415;28;7010;-74
2022/04/17 12:03:03;;;;;;;;;;;;;;;32.14;15.45;101416.47;4972608;28;6824;-74
2022/04/17 12:05:30;;;;;;;;;;;;;;;32.19;15.47;101413.69;4962433;28;6857;-74
2022/04/17 12:08:06;;;;;;;;;;;;;;;32.19;15.17;101403.97;4952966;28;7012;-74
2022/04/17 12:10:32;;;;;;;;;;;;;;;32.03;15.24;101402.63;4974561;28;6921;-74
2022/04/17 12:13:09;;;;;;;;;;;;;;;31.94;15.10;101395.81;4975631;28;7149;-74
2022/04/17 12:15:35;;;;;;;;;;;;;;;32.08;15.66;101390.13;4977692;28;6831;-74
2022/04/17 12:18:01;;;;;;;;;;;;;;;32.21;15.72;101399.47;4993545;28;6819;-74
2022/04/17 12:20:27;;;;;;;;;;;;;;;32.26;15.07;101389.63;4977227;28;6959;-74
2022/04/17 12:22:54;;;;;;;;;;;;;;;32.36;15.13;101392.91;4981112;28;6995;-75
2022/04/17 12:25:24;;;;;;;;;;;;;;;32.51;15.21;101385.47;4978162;28;7270;-74
2022/04/17 12:27:54;;;;;;;;;;;;;;;32.54;15.14;101375.59;4979883;28;6807;-74
2022/04/17 12:30:24;;;;;;;;;;;;;;;32.53;15.05;101371.22;4979190;28;6827;-75
2022/04/17 12:32:55;;;;;;;;;;;;;;;32.46;14.70;101368.78;4978990;28;6811;-75
2022/04/17 12:35:35;;;;;;;;;;;;;;;32.42;14.65;101363.59;4950914;28;7097;-75
2022/04/17 12:38:07;;;;;;;;;;;;;;;32.31;14.59;101364.75;4994173;28;7407;-75
2022/04/17 12:40:42;;;;;;;;;;;;;;;32.12;14.38;101359.97;4957608;28;6824;-74
2022/04/17 12:43:20;;;;;;;;;;;;;;;32.04;14.83;101356.66;4980045;28;7374;-74
2022/04/17 12:45:59;;;;;;;;;;;;;;;32.01;14.51;101349.66;4979704;28;6826;-74
2022/04/17 12:48:34;;;;;;;;;;;;;;;31.91;14.36;101340.22;4978774;28;7887;-74
2022/04/17 12:51:09;;;;;;;;;;;;;;;31.94;15.01;101340.16;4983188;28;6892;-74
2022/04/17 12:53:42;;;;;;;;;;;;;;;31.96;14.66;101336.50;4977310;28;6796;-74
2022/04/17 12:56:11;;;;;;;;;;;;;;;32.00;15.07;101338.19;4982606;28;6804;-74
2022/04/17 12:58:50;;;;;;;;;;;;;;;31.93;14.73;101338.41;4977947;28;6808;-75
2022/04/17 13:01:25;;;;;;;;;;;;;;;31.82;14.40;101331.63;4980516;28;6828;-75
2022/04/17 13:03:52;;;;;;;;;;;;;;;31.76;14.68;101325.56;4965408;28;6891;-74
2022/04/17 13:06:21;;;;;;;;;;;;;;;31.57;14.72;101315.44;4980376;28;6967;-74
2022/04/17 13:09:16;;;;;;;;;;;;;;;31.40;14.43;101313.22;4975920;28;6796;-74
2022/04/17 13:11:44;;;;;;;;;;;;;;;31.37;15.13;101318.63;4979668;28;6935;-74